sensor_id;sensor_type;location;lat;lon;timestamp;temperature;humidity
54082;DHT22;39986;50.770;0.266;2023-07-20T00:02:19;18.00;99.90
54082;DHT22;39986;50.770;0.266;2023-07-20T00:04:45;18.00;99.90
54082;DHT22;39986;50.770;0.266;2023-07-20T00:07:10;18.00;99.90
54082;DHT22;39986;50.770;0.266;2023-07-20T00:09:36;17.90;99.90
54082;DHT22;39986;50.770;0.266;2023-07-20T00:12:01;18.00;99.90
54082;DHT22;39986;50.770;0.266;2023-07-20T00:14:27;17.90;99.90
54082;DHT22;39986;50.770;0.266;2023-07-20T00:16:55;18.00;99.90
54082;DHT22;39986;50.770;0.266;2023-07-20T00:19:27;18.00;99.90
54082;DHT22;39986;50.770;0.266;2023-07-20T00:21:53;18.00;99.90
54082;DHT22;39986;50.770;0.266;2023-07-20T00:24:20;17.90;99.90
54082;DHT22;39986;50.770;0.266;2023-07-20T00:26:45;17.90;99.90
54082;DHT22;39986;50.770;0.266;2023-07-20T00:29:11;18.00;99.90
54082;DHT22;39986;50.770;0.266;2023-07-20T00:31:36;18.00;99.90
54082;DHT22;39986;50.770;0.266;2023-07-20T00:34:02;17.90;99.90
54082;DHT22;39986;50.770;0.266;2023-07-20T00:36:28;17.90;99.90
54082;DHT22;39986;50.770;0.266;2023-07-20T00:38:54;17.90;99.90
54082;DHT22;39986;50.770;0.266;2023-07-20T00:41:19;17.70;99.90
54082;DHT22;39986;50.770;0.266;2023-07-20T00:43:45;17.80;99.90
54082;DHT22;39986;50.770;0.266;2023-07-20T00:46:10;17.70;99.90
54082;DHT22;39986;50.770;0.266;2023-07-20T00:48:36;17.70;99.90
54082;DHT22;39986;50.770;0.266;2023-07-20T00:51:01;17.90;99.90
54082;DHT22;39986;50.770;0.266;2023-07-20T00:53:27;17.60;99.90
54082;DHT22;39986;50.770;0.266;2023-07-20T00:55:53;17.60;99.90
54082;DHT22;39986;50.770;0.266;2023-07-20T00:58:19;17.50;99.90
54082;DHT22;39986;50.770;0.266;2023-07-20T01:00:44;17.60;99.90
54082;DHT22;39986;50.770;0.266;2023-07-20T01:03:10;17.50;99.90
54082;DHT22;39986;50.770;0.266;2023-07-20T01:05:38;17.60;99.90
54082;DHT22;39986;50.770;0.266;2023-07-20T01:08:14;17.50;99.90
54082;DHT22;39986;50.770;0.266;2023-07-20T01:10:46;17.60;99.90
54082;DHT22;39986;50.770;0.266;2023-07-20T01:13:13;17.60;99.90
54082;DHT22;39986;50.770;0.266;2023-07-20T01:15:39;17.60;99.90
54082;DHT22;39986;50.770;0.266;2023-07-20T01:18:04;17.40;99.90
54082;DHT22;39986;50.770;0.266;2023-07-20T01:20:31;17.40;99.90
54082;DHT22;39986;50.770;0.266;2023-07-20T01:28:37;17.30;99.90
54082;DHT22;39986;50.770;0.266;2023-07-20T01:31:21;17.30;99.90
54082;DHT22;39986;50.770;0.266;2023-07-20T01:33:47;17.20;99.90
54082;DHT22;39986;50.770;0.266;2023-07-20T01:36:13;17.00;99.90
54082;DHT22;39986;50.770;0.266;2023-07-20T01:38:40;17.10;99.90
54082;DHT22;39986;50.770;0.266;2023-07-20T01:41:05;17.00;99.90
54082;DHT22;39986;50.770;0.266;2023-07-20T01:43:31;16.90;99.90
54082;DHT22;39986;50.770;0.266;2023-07-20T01:45:56;16.90;99.90
54082;DHT22;39986;50.770;0.266;2023-07-20T01:48:22;16.90;99.90
54082;DHT22;39986;50.770;0.266;2023-07-20T01:50:48;17.00;99.90
54082;DHT22;39986;50.770;0.266;2023-07-20T01:53:13;16.90;99.90
54082;DHT22;39986;50.770;0.266;2023-07-20T01:55:39;16.90;99.90
54082;DHT22;39986;50.770;0.266;2023-07-20T01:58:04;16.70;99.90
54082;DHT22;39986;50.770;0.266;2023-07-20T02:00:31;16.80;99.90
54082;DHT22;39986;50.770;0.266;2023-07-20T02:02:57;16.80;99.90
54082;DHT22;39986;50.770;0.266;2023-07-20T02:05:22;16.80;99.90
54082;DHT22;39986;50.770;0.266;2023-07-20T02:07:48;16.80;99.90
54082;DHT22;39986;50.770;0.266;2023-07-20T02:10:13;16.70;99.90
54082;DHT22;39986;50.770;0.266;2023-07-20T02:12:39;16.50;99.90
54082;DHT22;39986;50.770;0.266;2023-07-20T02:15:04;16.50;99.90
54082;DHT22;39986;50.770;0.266;2023-07-20T02:17:30;16.50;99.90
54082;DHT22;39986;50.770;0.266;2023-07-20T02:19:56;16.50;99.90
54082;DHT22;39986;50.770;0.266;2023-07-20T02:22:22;16.40;99.90
54082;DHT22;39986;50.770;0.266;2023-07-20T02:24:48;16.30;99.90
54082;DHT22;39986;50.770;0.266;2023-07-20T02:27:14;16.10;99.90
54082;DHT22;39986;50.770;0.266;2023-07-20T02:29:40;16.10;99.90
54082;DHT22;39986;50.770;0.266;2023-07-20T02:32:06;16.00;99.90
54082;DHT22;39986;50.770;0.266;2023-07-20T02:34:32;16.10;99.90
54082;DHT22;39986;50.770;0.266;2023-07-20T02:36:57;16.00;99.90
54082;DHT22;39986;50.770;0.266;2023-07-20T02:39:24;16.00;99.90
54082;DHT22;39986;50.770;0.266;2023-07-20T02:41:49;15.90;99.90
54082;DHT22;39986;50.770;0.266;2023-07-20T02:44:15;15.80;99.90
54082;DHT22;39986;50.770;0.266;2023-07-20T02:46:41;15.70;99.90
54082;DHT22;39986;50.770;0.266;2023-07-20T02:49:06;15.70;99.90
54082;DHT22;39986;50.770;0.266;2023-07-20T02:51:32;15.80;99.90
54082;DHT22;39986;50.770;0.266;2023-07-20T02:53:58;15.80;99.90
54082;DHT22;39986;50.770;0.266;2023-07-20T02:56:24;15.70;99.90
54082;DHT22;39986;50.770;0.266;2023-07-20T02:58:49;15.80;99.90
54082;DHT22;39986;50.770;0.266;2023-07-20T03:01:15;15.90;99.90
54082;DHT22;39986;50.770;0.266;2023-07-20T03:03:41;15.90;99.90
54082;DHT22;39986;50.770;0.266;2023-07-20T03:06:15;16.00;99.90
54082;DHT22;39986;50.770;0.266;2023-07-20T03:08:41;16.00;99.90
54082;DHT22;39986;50.770;0.266;2023-07-20T03:11:07;16.00;99.90
54082;DHT22;39986;50.770;0.266;2023-07-20T03:13:33;15.90;99.90
54082;DHT22;39986;50.770;0.266;2023-07-20T03:15:58;15.90;99.90
54082;DHT22;39986;50.770;0.266;2023-07-20T03:18:24;15.90;99.90
54082;DHT22;39986;50.770;0.266;2023-07-20T03:20:49;15.80;99.90
54082;DHT22;39986;50.770;0.266;2023-07-20T03:23:15;15.70;99.90
54082;DHT22;39986;50.770;0.266;2023-07-20T03:25:41;15.60;99.90
54082;DHT22;39986;50.770;0.266;2023-07-20T03:28:07;15.60;99.90
54082;DHT22;39986;50.770;0.266;2023-07-20T03:30:32;15.50;99.90
54082;DHT22;39986;50.770;0.266;2023-07-20T03:32:58;15.40;99.90
54082;DHT22;39986;50.770;0.266;2023-07-20T03:35:24;15.40;99.90
54082;DHT22;39986;50.770;0.266;2023-07-20T03:37:49;15.40;99.90
54082;DHT22;39986;50.770;0.266;2023-07-20T03:40:15;15.40;99.90
54082;DHT22;39986;50.770;0.266;2023-07-20T03:42:41;15.50;99.90
54082;DHT22;39986;50.770;0.266;2023-07-20T03:45:07;15.40;99.90
54082;DHT22;39986;50.770;0.266;2023-07-20T03:47:33;15.40;99.90
54082;DHT22;39986;50.770;0.266;2023-07-20T03:49:58;15.30;99.90
54082;DHT22;39986;50.770;0.266;2023-07-20T03:52:24;15.40;99.90
54082;DHT22;39986;50.770;0.266;2023-07-20T03:54:49;15.40;99.90
54082;DHT22;39986;50.770;0.266;2023-07-20T03:57:16;15.40;99.90
54082;DHT22;39986;50.770;0.266;2023-07-20T03:59:44;15.40;99.90
54082;DHT22;39986;50.770;0.266;2023-07-20T04:02:10;15.50;99.90
54082;DHT22;39986;50.770;0.266;2023-07-20T04:04:36;15.40;99.90
54082;DHT22;39986;50.770;0.266;2023-07-20T04:07:01;15.30;99.90
54082;DHT22;39986;50.770;0.266;2023-07-20T04:09:27;15.30;99.90
54082;DHT22;39986;50.770;0.266;2023-07-20T04:11:52;15.40;99.90
54082;DHT22;39986;50.770;0.266;2023-07-20T04:14:18;15.40;99.90
54082;DHT22;39986;50.770;0.266;2023-07-20T04:16:45;15.50;99.90
54082;DHT22;39986;50.770;0.266;2023-07-20T04:19:11;15.50;99.90
54082;DHT22;39986;50.770;0.266;2023-07-20T04:21:39;15.40;99.90
54082;DHT22;39986;50.770;0.266;2023-07-20T04:24:05;15.40;99.90
54082;DHT22;39986;50.770;0.266;2023-07-20T04:26:30;15.50;99.90
54082;DHT22;39986;50.770;0.266;2023-07-20T04:28:56;15.50;99.90
54082;DHT22;39986;50.770;0.266;2023-07-20T04:31:21;15.60;99.90
54082;DHT22;39986;50.770;0.266;2023-07-20T04:33:47;15.50;99.90
54082;DHT22;39986;50.770;0.266;2023-07-20T04:36:13;15.60;99.90
54082;DHT22;39986;50.770;0.266;2023-07-20T04:38:41;15.60;99.90
54082;DHT22;39986;50.770;0.266;2023-07-20T04:41:07;15.60;99.90
54082;DHT22;39986;50.770;0.266;2023-07-20T04:43:33;15.70;99.90
54082;DHT22;39986;50.770;0.266;2023-07-20T04:45:58;15.80;99.90
54082;DHT22;39986;50.770;0.266;2023-07-20T04:48:24;15.80;99.90
54082;DHT22;39986;50.770;0.266;2023-07-20T04:50:49;15.80;99.90
54082;DHT22;39986;50.770;0.266;2023-07-20T04:53:15;15.70;99.90
54082;DHT22;39986;50.770;0.266;2023-07-20T04:55:40;15.80;99.90
54082;DHT22;39986;50.770;0.266;2023-07-20T04:58:06;15.90;99.90
54082;DHT22;39986;50.770;0.266;2023-07-20T05:00:32;16.00;99.90
54082;DHT22;39986;50.770;0.266;2023-07-20T05:02:58;15.90;99.90
54082;DHT22;39986;50.770;0.266;2023-07-20T05:05:24;16.10;99.90
54082;DHT22;39986;50.770;0.266;2023-07-20T05:07:49;16.20;99.90
54082;DHT22;39986;50.770;0.266;2023-07-20T05:10:15;16.20;99.90
54082;DHT22;39986;50.770;0.266;2023-07-20T05:12:41;16.20;99.90
54082;DHT22;39986;50.770;0.266;2023-07-20T05:15:07;16.30;99.90
54082;DHT22;39986;50.770;0.266;2023-07-20T05:17:33;16.40;99.90
54082;DHT22;39986;50.770;0.266;2023-07-20T05:19:58;16.50;99.90
54082;DHT22;39986;50.770;0.266;2023-07-20T05:22:24;16.80;99.90
54082;DHT22;39986;50.770;0.266;2023-07-20T05:24:50;17.20;99.90
54082;DHT22;39986;50.770;0.266;2023-07-20T05:27:15;17.60;99.90
54082;DHT22;39986;50.770;0.266;2023-07-20T05:29:44;18.20;99.90
54082;DHT22;39986;50.770;0.266;2023-07-20T05:32:10;19.00;99.90
54082;DHT22;39986;50.770;0.266;2023-07-20T05:34:35;19.90;99.90
54082;DHT22;39986;50.770;0.266;2023-07-20T05:37:01;20.70;99.90
54082;DHT22;39986;50.770;0.266;2023-07-20T05:39:26;21.10;99.90
54082;DHT22;39986;50.770;0.266;2023-07-20T05:41:52;21.10;99.90
54082;DHT22;39986;50.770;0.266;2023-07-20T05:44:17;20.70;99.90
54082;DHT22;39986;50.770;0.266;2023-07-20T05:46:43;20.20;99.90
54082;DHT22;39986;50.770;0.266;2023-07-20T05:49:08;19.90;99.90
54082;DHT22;39986;50.770;0.266;2023-07-20T05:51:35;19.50;99.90
54082;DHT22;39986;50.770;0.266;2023-07-20T05:54:00;19.30;99.90
54082;DHT22;39986;50.770;0.266;2023-07-20T05:56:26;19.10;99.90
54082;DHT22;39986;50.770;0.266;2023-07-20T05:58:51;19.00;99.90
54082;DHT22;39986;50.770;0.266;2023-07-20T06:01:17;19.00;99.90
54082;DHT22;39986;50.770;0.266;2023-07-20T06:03:44;19.00;99.90
54082;DHT22;39986;50.770;0.266;2023-07-20T06:06:10;18.90;99.90
54082;DHT22;39986;50.770;0.266;2023-07-20T06:08:37;18.90;99.90
54082;DHT22;39986;50.770;0.266;2023-07-20T06:11:03;18.80;99.90
54082;DHT22;39986;50.770;0.266;2023-07-20T06:13:28;18.70;99.90
54082;DHT22;39986;50.770;0.266;2023-07-20T06:15:54;18.60;99.90
54082;DHT22;39986;50.770;0.266;2023-07-20T06:18:22;18.60;99.90
54082;DHT22;39986;50.770;0.266;2023-07-20T06:20:51;18.70;99.90
54082;DHT22;39986;50.770;0.266;2023-07-20T06:23:19;18.80;99.90
54082;DHT22;39986;50.770;0.266;2023-07-20T06:25:45;18.80;99.90
54082;DHT22;39986;50.770;0.266;2023-07-20T06:28:11;19.00;99.90
54082;DHT22;39986;50.770;0.266;2023-07-20T06:30:37;19.00;99.90
54082;DHT22;39986;50.770;0.266;2023-07-20T06:33:02;19.20;99.90
54082;DHT22;39986;50.770;0.266;2023-07-20T06:35:28;19.30;99.90
54082;DHT22;39986;50.770;0.266;2023-07-20T06:37:53;19.50;99.90
54082;DHT22;39986;50.770;0.266;2023-07-20T06:40:19;19.70;99.90
54082;DHT22;39986;50.770;0.266;2023-07-20T06:42:45;19.80;99.90
54082;DHT22;39986;50.770;0.266;2023-07-20T06:45:10;19.80;99.90
54082;DHT22;39986;50.770;0.266;2023-07-20T06:47:39;19.80;99.90
54082;DHT22;39986;50.770;0.266;2023-07-20T06:50:08;19.90;99.90
54082;DHT22;39986;50.770;0.266;2023-07-20T06:52:33;19.90;99.90
54082;DHT22;39986;50.770;0.266;2023-07-20T06:54:59;19.90;99.90
54082;DHT22;39986;50.770;0.266;2023-07-20T06:57:25;19.90;99.90
54082;DHT22;39986;50.770;0.266;2023-07-20T06:59:50;19.80;99.90
54082;DHT22;39986;50.770;0.266;2023-07-20T07:02:16;19.70;99.90
54082;DHT22;39986;50.770;0.266;2023-07-20T07:04:42;19.80;99.90
54082;DHT22;39986;50.770;0.266;2023-07-20T07:07:07;19.90;99.90
54082;DHT22;39986;50.770;0.266;2023-07-20T07:09:34;20.00;99.90
54082;DHT22;39986;50.770;0.266;2023-07-20T07:11:59;20.10;99.90
54082;DHT22;39986;50.770;0.266;2023-07-20T07:14:25;20.10;99.90
54082;DHT22;39986;50.770;0.266;2023-07-20T07:16:50;20.20;99.90
54082;DHT22;39986;50.770;0.266;2023-07-20T07:19:16;20.40;99.90
54082;DHT22;39986;50.770;0.266;2023-07-20T07:21:41;20.40;99.90
54082;DHT22;39986;50.770;0.266;2023-07-20T07:24:07;20.50;99.90
54082;DHT22;39986;50.770;0.266;2023-07-20T07:26:33;20.60;99.90
54082;DHT22;39986;50.770;0.266;2023-07-20T07:28:58;20.60;99.90
54082;DHT22;39986;50.770;0.266;2023-07-20T07:31:28;20.70;99.90
54082;DHT22;39986;50.770;0.266;2023-07-20T07:33:54;20.70;99.90
54082;DHT22;39986;50.770;0.266;2023-07-20T07:36:19;20.80;99.90
54082;DHT22;39986;50.770;0.266;2023-07-20T07:38:45;20.90;99.90
54082;DHT22;39986;50.770;0.266;2023-07-20T07:41:10;20.90;99.90
54082;DHT22;39986;50.770;0.266;2023-07-20T07:43:36;21.10;99.90
54082;DHT22;39986;50.770;0.266;2023-07-20T07:46:01;21.10;99.90
54082;DHT22;39986;50.770;0.266;2023-07-20T07:48:27;21.30;99.90
54082;DHT22;39986;50.770;0.266;2023-07-20T07:50:53;21.30;99.90
54082;DHT22;39986;50.770;0.266;2023-07-20T07:53:19;21.50;99.90
54082;DHT22;39986;50.770;0.266;2023-07-20T07:55:47;21.60;99.90
54082;DHT22;39986;50.770;0.266;2023-07-20T07:58:12;21.70;99.90
54082;DHT22;39986;50.770;0.266;2023-07-20T08:00:39;21.70;99.90
54082;DHT22;39986;50.770;0.266;2023-07-20T08:03:05;21.80;99.90
54082;DHT22;39986;50.770;0.266;2023-07-20T08:05:31;21.90;99.90
54082;DHT22;39986;50.770;0.266;2023-07-20T08:07:56;21.90;99.90
54082;DHT22;39986;50.770;0.266;2023-07-20T08:10:22;22.00;99.90
54082;DHT22;39986;50.770;0.266;2023-07-20T08:12:48;22.00;99.90
54082;DHT22;39986;50.770;0.266;2023-07-20T08:15:13;22.00;99.90
54082;DHT22;39986;50.770;0.266;2023-07-20T08:17:40;22.00;99.90
54082;DHT22;39986;50.770;0.266;2023-07-20T08:20:06;21.90;99.90
54082;DHT22;39986;50.770;0.266;2023-07-20T08:22:32;21.90;99.90
54082;DHT22;39986;50.770;0.266;2023-07-20T08:24:57;22.20;99.90
54082;DHT22;39986;50.770;0.266;2023-07-20T08:27:23;22.40;99.90
54082;DHT22;39986;50.770;0.266;2023-07-20T08:29:48;22.30;99.90
54082;DHT22;39986;50.770;0.266;2023-07-20T08:32:14;22.30;99.90
54082;DHT22;39986;50.770;0.266;2023-07-20T08:34:41;22.70;99.90
54082;DHT22;39986;50.770;0.266;2023-07-20T08:37:07;23.10;99.90
54082;DHT22;39986;50.770;0.266;2023-07-20T08:39:35;23.60;99.90
54082;DHT22;39986;50.770;0.266;2023-07-20T08:42:01;23.70;99.90
54082;DHT22;39986;50.770;0.266;2023-07-20T08:44:29;23.70;99.90
54082;DHT22;39986;50.770;0.266;2023-07-20T08:46:57;23.90;99.90
54082;DHT22;39986;50.770;0.266;2023-07-20T08:49:23;23.90;99.90
54082;DHT22;39986;50.770;0.266;2023-07-20T08:51:48;23.90;99.90
54082;DHT22;39986;50.770;0.266;2023-07-20T08:54:14;23.80;99.90
54082;DHT22;39986;50.770;0.266;2023-07-20T08:56:41;23.50;99.90
54082;DHT22;39986;50.770;0.266;2023-07-20T08:59:08;22.90;99.90
54082;DHT22;39986;50.770;0.266;2023-07-20T09:01:33;22.30;99.90
54082;DHT22;39986;50.770;0.266;2023-07-20T09:04:00;21.90;99.90
54082;DHT22;39986;50.770;0.266;2023-07-20T09:06:26;21.70;99.90
54082;DHT22;39986;50.770;0.266;2023-07-20T09:08:51;21.60;99.90
54082;DHT22;39986;50.770;0.266;2023-07-20T09:11:17;21.50;99.90
54082;DHT22;39986;50.770;0.266;2023-07-20T09:13:43;21.30;99.90
54082;DHT22;39986;50.770;0.266;2023-07-20T09:16:09;21.20;99.90
54082;DHT22;39986;50.770;0.266;2023-07-20T09:18:38;21.10;99.90
54082;DHT22;39986;50.770;0.266;2023-07-20T09:21:04;21.10;99.90
54082;DHT22;39986;50.770;0.266;2023-07-20T09:23:31;21.00;99.90
54082;DHT22;39986;50.770;0.266;2023-07-20T09:25:57;20.90;99.90
54082;DHT22;39986;50.770;0.266;2023-07-20T09:28:23;20.80;99.90
54082;DHT22;39986;50.770;0.266;2023-07-20T09:30:48;20.90;99.90
54082;DHT22;39986;50.770;0.266;2023-07-20T09:33:23;21.20;99.90
54082;DHT22;39986;50.770;0.266;2023-07-20T09:35:49;21.40;99.90
54082;DHT22;39986;50.770;0.266;2023-07-20T09:38:15;21.30;99.90
54082;DHT22;39986;50.770;0.266;2023-07-20T09:40:41;21.30;99.90
54082;DHT22;39986;50.770;0.266;2023-07-20T09:43:08;21.30;99.90
54082;DHT22;39986;50.770;0.266;2023-07-20T09:45:34;21.20;99.90
54082;DHT22;39986;50.770;0.266;2023-07-20T09:48:03;21.10;99.90
54082;DHT22;39986;50.770;0.266;2023-07-20T09:50:28;21.00;99.90
54082;DHT22;39986;50.770;0.266;2023-07-20T09:52:54;21.00;99.90
54082;DHT22;39986;50.770;0.266;2023-07-20T09:55:20;21.00;99.90
54082;DHT22;39986;50.770;0.266;2023-07-20T09:57:46;21.20;99.90
54082;DHT22;39986;50.770;0.266;2023-07-20T10:00:12;21.50;99.90
54082;DHT22;39986;50.770;0.266;2023-07-20T10:02:42;21.70;99.90
54082;DHT22;39986;50.770;0.266;2023-07-20T10:05:09;21.80;99.90
54082;DHT22;39986;50.770;0.266;2023-07-20T10:07:36;21.60;99.90
54082;DHT22;39986;50.770;0.266;2023-07-20T10:10:04;21.60;99.90
54082;DHT22;39986;50.770;0.266;2023-07-20T10:12:32;21.70;99.90
54082;DHT22;39986;50.770;0.266;2023-07-20T10:14:59;21.60;99.90
54082;DHT22;39986;50.770;0.266;2023-07-20T10:17:26;21.50;99.90
54082;DHT22;39986;50.770;0.266;2023-07-20T10:19:54;21.50;99.90
54082;DHT22;39986;50.770;0.266;2023-07-20T10:22:25;21.50;99.90
54082;DHT22;39986;50.770;0.266;2023-07-20T10:24:51;21.60;99.90
54082;DHT22;39986;50.770;0.266;2023-07-20T10:27:22;21.70;99.90
54082;DHT22;39986;50.770;0.266;2023-07-20T10:29:47;22.10;99.90
54082;DHT22;39986;50.770;0.266;2023-07-20T10:32:13;22.50;99.90
54082;DHT22;39986;50.770;0.266;2023-07-20T10:34:39;22.60;99.90
54082;DHT22;39986;50.770;0.266;2023-07-20T10:37:05;22.70;99.90
54082;DHT22;39986;50.770;0.266;2023-07-20T10:39:31;23.00;99.90
54082;DHT22;39986;50.770;0.266;2023-07-20T10:42:00;23.10;99.90
54082;DHT22;39986;50.770;0.266;2023-07-20T10:44:27;23.00;99.90
54082;DHT22;39986;50.770;0.266;2023-07-20T10:46:58;23.00;99.90
54082;DHT22;39986;50.770;0.266;2023-07-20T10:49:24;23.00;99.90
54082;DHT22;39986;50.770;0.266;2023-07-20T10:51:56;23.30;99.90
54082;DHT22;39986;50.770;0.266;2023-07-20T10:56:47;23.40;99.90
54082;DHT22;39986;50.770;0.266;2023-07-20T10:59:18;23.50;99.90
54082;DHT22;39986;50.770;0.266;2023-07-20T11:01:47;23.60;99.90
54082;DHT22;39986;50.770;0.266;2023-07-20T11:04:16;23.80;99.90
54082;DHT22;39986;50.770;0.266;2023-07-20T11:06:45;23.90;99.90
54082;DHT22;39986;50.770;0.266;2023-07-20T11:09:11;24.30;99.90
54082;DHT22;39986;50.770;0.266;2023-07-20T11:11:40;25.40;99.90
54082;DHT22;39986;50.770;0.266;2023-07-20T11:14:07;27.30;99.90
54082;DHT22;39986;50.770;0.266;2023-07-20T11:16:37;29.00;99.90
54082;DHT22;39986;50.770;0.266;2023-07-20T11:19:03;30.00;99.90
54082;DHT22;39986;50.770;0.266;2023-07-20T11:21:30;31.00;99.90
54082;DHT22;39986;50.770;0.266;2023-07-20T11:23:55;31.40;99.90
54082;DHT22;39986;50.770;0.266;2023-07-20T11:26:21;32.10;99.90
54082;DHT22;39986;50.770;0.266;2023-07-20T11:28:50;32.90;99.90
54082;DHT22;39986;50.770;0.266;2023-07-20T11:31:17;33.20;99.90
54082;DHT22;39986;50.770;0.266;2023-07-20T11:33:43;33.50;99.90
54082;DHT22;39986;50.770;0.266;2023-07-20T11:36:08;33.40;99.80
54082;DHT22;39986;50.770;0.266;2023-07-20T11:38:34;33.20;99.10
54082;DHT22;39986;50.770;0.266;2023-07-20T11:41:00;33.40;98.80
54082;DHT22;39986;50.770;0.266;2023-07-20T11:43:25;33.40;98.80
54082;DHT22;39986;50.770;0.266;2023-07-20T11:45:51;33.60;99.30
54082;DHT22;39986;50.770;0.266;2023-07-20T11:48:17;33.20;99.40
54082;DHT22;39986;50.770;0.266;2023-07-20T11:50:42;32.70;99.90
54082;DHT22;39986;50.770;0.266;2023-07-20T11:53:08;33.40;98.80
54082;DHT22;39986;50.770;0.266;2023-07-20T11:55:34;33.40;99.30
54082;DHT22;39986;50.770;0.266;2023-07-20T11:58:06;33.20;99.90
54082;DHT22;39986;50.770;0.266;2023-07-20T12:00:36;33.70;99.90
54082;DHT22;39986;50.770;0.266;2023-07-20T12:03:04;34.80;98.10
54082;DHT22;39986;50.770;0.266;2023-07-20T12:05:30;34.80;96.60
54082;DHT22;39986;50.770;0.266;2023-07-20T12:07:55;34.40;96.40
54082;DHT22;39986;50.770;0.266;2023-07-20T12:10:25;33.90;97.10
54082;DHT22;39986;50.770;0.266;2023-07-20T12:12:51;33.60;98.10
54082;DHT22;39986;50.770;0.266;2023-07-20T12:17:43;33.00;98.10
54082;DHT22;39986;50.770;0.266;2023-07-20T12:20:09;33.00;98.70
54082;DHT22;39986;50.770;0.266;2023-07-20T12:22:39;33.50;97.50
54082;DHT22;39986;50.770;0.266;2023-07-20T12:25:08;33.90;96.90
54082;DHT22;39986;50.770;0.266;2023-07-20T12:27:35;34.50;95.20
54082;DHT22;39986;50.770;0.266;2023-07-20T12:30:01;34.00;96.30
54082;DHT22;39986;50.770;0.266;2023-07-20T12:32:28;33.90;96.40
54082;DHT22;39986;50.770;0.266;2023-07-20T12:34:53;34.10;95.40
54082;DHT22;39986;50.770;0.266;2023-07-20T12:37:19;34.20;94.80
54082;DHT22;39986;50.770;0.266;2023-07-20T12:39:45;34.10;94.90
54082;DHT22;39986;50.770;0.266;2023-07-20T12:42:12;33.40;95.70
54082;DHT22;39986;50.770;0.266;2023-07-20T12:44:38;33.40;95.70
54082;DHT22;39986;50.770;0.266;2023-07-20T12:47:04;33.50;96.10
54082;DHT22;39986;50.770;0.266;2023-07-20T12:49:30;33.60;96.00
54082;DHT22;39986;50.770;0.266;2023-07-20T12:51:55;32.60;96.20
54082;DHT22;39986;50.770;0.266;2023-07-20T12:54:21;32.40;96.80
54082;DHT22;39986;50.770;0.266;2023-07-20T12:56:46;33.10;95.40
54082;DHT22;39986;50.770;0.266;2023-07-20T12:59:12;33.30;95.00
54082;DHT22;39986;50.770;0.266;2023-07-20T13:01:38;35.00;93.00
54082;DHT22;39986;50.770;0.266;2023-07-20T13:04:06;36.10;91.00
54082;DHT22;39986;50.770;0.266;2023-07-20T13:06:34;37.30;87.60
54082;DHT22;39986;50.770;0.266;2023-07-20T13:09:00;37.90;84.70
54082;DHT22;39986;50.770;0.266;2023-07-20T13:11:25;38.00;83.10
54082;DHT22;39986;50.770;0.266;2023-07-20T13:13:51;38.30;80.90
54082;DHT22;39986;50.770;0.266;2023-07-20T13:16:17;38.20;77.20
54082;DHT22;39986;50.770;0.266;2023-07-20T13:18:43;36.70;79.80
54082;DHT22;39986;50.770;0.266;2023-07-20T13:21:08;35.40;83.60
54082;DHT22;39986;50.770;0.266;2023-07-20T13:23:36;35.30;83.60
54082;DHT22;39986;50.770;0.266;2023-07-20T13:26:02;35.20;84.40
54082;DHT22;39986;50.770;0.266;2023-07-20T13:28:28;35.30;84.80
54082;DHT22;39986;50.770;0.266;2023-07-20T13:30:54;35.30;82.30
54082;DHT22;39986;50.770;0.266;2023-07-20T13:33:20;35.60;83.30
54082;DHT22;39986;50.770;0.266;2023-07-20T13:35:45;35.40;84.40
54082;DHT22;39986;50.770;0.266;2023-07-20T13:38:12;35.20;85.10
54082;DHT22;39986;50.770;0.266;2023-07-20T13:40:37;35.40;84.10
54082;DHT22;39986;50.770;0.266;2023-07-20T13:43:03;35.10;84.00
54082;DHT22;39986;50.770;0.266;2023-07-20T13:45:29;36.20;82.70
54082;DHT22;39986;50.770;0.266;2023-07-20T13:47:54;37.30;81.20
54082;DHT22;39986;50.770;0.266;2023-07-20T13:50:20;37.70;79.40
54082;DHT22;39986;50.770;0.266;2023-07-20T13:52:45;38.20;76.90
54082;DHT22;39986;50.770;0.266;2023-07-20T13:55:11;39.00;76.00
54082;DHT22;39986;50.770;0.266;2023-07-20T13:57:36;38.50;75.50
54082;DHT22;39986;50.770;0.266;2023-07-20T14:00:03;38.00;75.60
54082;DHT22;39986;50.770;0.266;2023-07-20T14:02:30;38.40;75.20
54082;DHT22;39986;50.770;0.266;2023-07-20T14:04:56;39.00;73.30
54082;DHT22;39986;50.770;0.266;2023-07-20T14:07:22;39.30;71.30
54082;DHT22;39986;50.770;0.266;2023-07-20T14:09:47;39.30;69.30
54082;DHT22;39986;50.770;0.266;2023-07-20T14:12:13;39.30;69.80
54082;DHT22;39986;50.770;0.266;2023-07-20T14:14:40;39.60;67.80
54082;DHT22;39986;50.770;0.266;2023-07-20T14:17:06;39.70;66.60
54082;DHT22;39986;50.770;0.266;2023-07-20T14:19:32;39.70;65.90
54082;DHT22;39986;50.770;0.266;2023-07-20T14:21:58;39.10;67.20
54082;DHT22;39986;50.770;0.266;2023-07-20T14:24:27;39.10;67.40
54082;DHT22;39986;50.770;0.266;2023-07-20T14:26:53;39.60;65.20
54082;DHT22;39986;50.770;0.266;2023-07-20T14:29:20;40.20;64.30
54082;DHT22;39986;50.770;0.266;2023-07-20T14:31:46;39.60;63.30
54082;DHT22;39986;50.770;0.266;2023-07-20T14:34:18;39.60;61.80
54082;DHT22;39986;50.770;0.266;2023-07-20T14:36:44;40.50;61.30
54082;DHT22;39986;50.770;0.266;2023-07-20T14:39:10;40.60;60.60
54082;DHT22;39986;50.770;0.266;2023-07-20T14:41:36;40.00;59.90
54082;DHT22;39986;50.770;0.266;2023-07-20T14:44:01;39.60;60.00
54082;DHT22;39986;50.770;0.266;2023-07-20T14:46:27;39.00;61.20
54082;DHT22;39986;50.770;0.266;2023-07-20T14:48:53;39.10;60.70
54082;DHT22;39986;50.770;0.266;2023-07-20T14:51:18;38.70;61.30
54082;DHT22;39986;50.770;0.266;2023-07-20T14:53:44;38.40;62.00
54082;DHT22;39986;50.770;0.266;2023-07-20T14:56:11;37.90;62.20
54082;DHT22;39986;50.770;0.266;2023-07-20T14:58:36;37.80;60.80
54082;DHT22;39986;50.770;0.266;2023-07-20T15:01:02;36.50;59.90
54082;DHT22;39986;50.770;0.266;2023-07-20T15:03:28;34.60;63.60
54082;DHT22;39986;50.770;0.266;2023-07-20T15:05:56;32.40;71.80
54082;DHT22;39986;50.770;0.266;2023-07-20T15:08:21;30.70;72.70
54082;DHT22;39986;50.770;0.266;2023-07-20T15:10:48;29.60;81.10
54082;DHT22;39986;50.770;0.266;2023-07-20T15:13:14;28.70;84.50
54082;DHT22;39986;50.770;0.266;2023-07-20T15:15:40;28.10;86.80
54082;DHT22;39986;50.770;0.266;2023-07-20T15:18:05;27.50;91.70
54082;DHT22;39986;50.770;0.266;2023-07-20T15:20:31;27.30;94.80
54082;DHT22;39986;50.770;0.266;2023-07-20T15:22:58;27.10;96.60
54082;DHT22;39986;50.770;0.266;2023-07-20T15:25:24;26.50;97.80
54082;DHT22;39986;50.770;0.266;2023-07-20T15:27:49;26.30;99.10
54082;DHT22;39986;50.770;0.266;2023-07-20T15:30:15;26.20;99.10
54082;DHT22;39986;50.770;0.266;2023-07-20T15:32:41;26.00;99.90
54082;DHT22;39986;50.770;0.266;2023-07-20T15:35:08;25.90;99.90